Barton, North Dakota
Current Conditions -  °F | °C
As of 10:15 AM on Saturday 20 Dec 2014 (Local Time) from KRUG Reporting Station
Moderate Fog Moderate Fog  
Wind Chill: 12°   Ceiling: 100
Heat Index: 21°   Visibility: 0.25mi
Dew Point: 21°   Wind: 8mph
Humidity: 100%   Direction: 130°SE
Pressure: 29.91"   Gusts: NA
Location:  48.5496°N, 100.255°W
Report Text: KRUG 201615Z AUTO 13007KT 1/4SM FZFG OVC001 M06/M06 A2991 RMK AO2
Loading
Personal Weather Stations






























Interactive Weather Map New forecast layout! Learn more

10-Day Weather Forecast

Advertisements
Track Severe Weather on mobile